createdAt,value
2022-08-28T00:00:28.146Z,2.90
2022-08-28T00:02:55.306Z,2.63
2022-08-28T00:05:24.018Z,2.87
2022-08-28T00:07:50.807Z,2.67
2022-08-28T00:10:18.722Z,2.33
2022-08-28T00:12:46.035Z,2.20
2022-08-28T00:15:16.016Z,2.40
2022-08-28T00:17:42.931Z,2.50
2022-08-28T00:20:10.939Z,2.50
2022-08-28T00:22:38.418Z,2.53
2022-08-28T00:25:09.267Z,3.07
2022-08-28T00:27:55.150Z,2.40
2022-08-28T00:30:27.657Z,2.70
2022-08-28T00:32:55.114Z,2.53
2022-08-28T00:35:23.719Z,2.53
2022-08-28T00:37:50.701Z,3.10
2022-08-28T00:40:28.426Z,2.63
2022-08-28T00:42:55.833Z,2.33
2022-08-28T00:45:23.035Z,2.30
2022-08-28T00:47:50.066Z,2.40
2022-08-28T00:50:18.193Z,2.20
2022-08-28T00:52:49.080Z,2.63
2022-08-28T00:55:20.612Z,2.50
2022-08-28T00:57:50.428Z,2.77
2022-08-28T01:00:31.998Z,3.03
2022-08-28T01:02:58.887Z,2.53
2022-08-28T01:05:25.738Z,2.83
2022-08-28T01:07:52.909Z,2.70
2022-08-28T01:10:21.937Z,2.30
2022-08-28T01:12:50.045Z,2.40
2022-08-28T01:15:20.385Z,2.20
2022-08-28T01:17:49.113Z,2.43
2022-08-28T01:20:18.507Z,2.30
2022-08-28T01:23:06.516Z,2.87
2022-08-28T01:25:34.770Z,2.07
2022-08-28T01:28:05.589Z,1.83
2022-08-28T01:30:32.813Z,2.20
2022-08-28T01:32:59.571Z,1.60
2022-08-28T01:35:28.769Z,1.80
2022-08-28T01:37:55.958Z,2.57
2022-08-28T01:40:26.599Z,1.63
2022-08-28T01:42:53.765Z,1.80
2022-08-28T01:45:20.953Z,2.33
2022-08-28T01:47:47.952Z,2.00
2022-08-28T01:50:19.405Z,2.47
2022-08-28T01:52:46.289Z,2.93
2022-08-28T01:55:13.033Z,2.40
2022-08-28T01:57:49.693Z,1.97
2022-08-28T02:00:17.102Z,2.10
2022-08-28T02:02:43.980Z,2.20
2022-08-28T02:05:10.912Z,2.90
2022-08-28T02:07:37.845Z,2.50
2022-08-28T02:10:06.346Z,2.37
2022-08-28T02:12:33.205Z,2.30
2022-08-28T02:15:00.141Z,2.50
2022-08-28T02:17:26.901Z,2.30
2022-08-28T02:19:53.748Z,2.00
2022-08-28T02:22:20.511Z,2.00
2022-08-28T02:24:47.405Z,2.30
2022-08-28T02:27:14.161Z,2.13
2022-08-28T02:29:40.872Z,2.10
2022-08-28T02:32:08.029Z,2.20
2022-08-28T02:34:34.853Z,2.33
2022-08-28T02:37:01.613Z,2.00
2022-08-28T02:39:28.500Z,2.03
2022-08-28T02:41:55.447Z,2.27
2022-08-28T02:44:22.210Z,1.40
2022-08-28T02:46:49.096Z,2.10
2022-08-28T02:49:15.885Z,2.70
2022-08-28T02:51:42.623Z,2.13
2022-08-28T02:54:09.337Z,2.70
2022-08-28T02:56:36.125Z,2.07
2022-08-28T02:59:02.864Z,2.73
2022-08-28T03:01:30.836Z,2.00
2022-08-28T03:03:58.118Z,2.03
2022-08-28T03:06:24.847Z,2.40
2022-08-28T03:08:51.600Z,2.70
2022-08-28T03:11:19.032Z,2.00
2022-08-28T03:13:45.804Z,2.77
2022-08-28T03:16:12.633Z,2.20
2022-08-28T03:18:39.665Z,2.83
2022-08-28T03:21:06.613Z,2.47
2022-08-28T03:23:33.327Z,3.00
2022-08-28T03:26:01.081Z,2.40
2022-08-28T03:28:32.125Z,2.73
2022-08-28T03:30:59.021Z,2.17
2022-08-28T03:33:26.821Z,2.50
2022-08-28T03:35:53.784Z,2.60
2022-08-28T03:38:21.437Z,1.93
2022-08-28T03:40:48.280Z,2.43
2022-08-28T03:43:17.816Z,2.90
2022-08-28T03:45:58.168Z,2.23
2022-08-28T03:48:26.348Z,2.50
2022-08-28T03:50:53.847Z,2.33
2022-08-28T03:53:22.929Z,2.90
2022-08-28T03:55:49.633Z,2.50
2022-08-28T03:58:19.032Z,3.10
2022-08-28T04:00:46.209Z,2.30
2022-08-28T04:03:13.613Z,2.93
2022-08-28T04:05:41.236Z,2.53
2022-08-28T04:08:08.073Z,2.33
2022-08-28T04:10:35.835Z,2.80
2022-08-28T04:13:03.236Z,2.03
2022-08-28T04:15:30.014Z,2.20
2022-08-28T04:17:56.803Z,2.63
2022-08-28T04:20:24.123Z,2.13
2022-08-28T04:22:55.024Z,2.90
2022-08-28T04:25:22.377Z,1.97
2022-08-28T04:27:49.732Z,2.30
2022-08-28T04:30:16.531Z,2.50
2022-08-28T04:32:43.263Z,2.50
2022-08-28T04:35:12.128Z,2.20
2022-08-28T04:37:39.469Z,2.27
2022-08-28T04:40:08.604Z,2.40
2022-08-28T04:42:35.532Z,2.50
2022-08-28T04:45:02.532Z,1.90
2022-08-28T04:47:29.259Z,2.33
2022-08-28T04:49:56.028Z,2.50
2022-08-28T04:52:22.862Z,2.00
2022-08-28T04:54:50.052Z,2.47
2022-08-28T04:57:16.801Z,2.07
2022-08-28T04:59:45.040Z,2.03
2022-08-28T05:02:11.992Z,2.77
2022-08-28T05:04:38.816Z,2.37
2022-08-28T05:07:05.678Z,2.13
2022-08-28T05:09:32.474Z,2.27
2022-08-28T05:12:02.768Z,2.57
2022-08-28T05:14:29.533Z,2.33
2022-08-28T05:16:57.057Z,2.37
2022-08-28T05:19:24.669Z,2.70
2022-08-28T05:21:51.531Z,2.10
2022-08-28T05:24:18.600Z,2.83
2022-08-28T05:26:48.035Z,2.20
2022-08-28T05:29:16.675Z,2.90
2022-08-28T05:31:43.576Z,2.90
2022-08-28T05:34:10.755Z,2.90
2022-08-28T05:36:38.109Z,2.70
2022-08-28T05:39:06.811Z,2.20
2022-08-28T05:41:33.707Z,3.00
2022-08-28T05:44:02.552Z,2.80
2022-08-28T05:46:29.437Z,3.00
2022-08-28T05:48:56.254Z,3.13
2022-08-28T05:51:23.810Z,2.83
2022-08-28T05:53:51.533Z,2.80
2022-08-28T05:56:20.530Z,2.57
2022-08-28T05:58:47.320Z,2.50
2022-08-28T06:01:14.036Z,2.70
2022-08-28T06:03:42.490Z,2.83
2022-08-28T06:06:09.706Z,2.40
2022-08-28T06:08:36.556Z,2.70
2022-08-28T06:11:03.417Z,2.03
2022-08-28T06:13:30.308Z,2.90
2022-08-28T06:15:57.107Z,2.60
2022-08-28T06:18:24.222Z,2.20
2022-08-28T06:20:51.944Z,2.30
2022-08-28T06:23:24.046Z,2.17
2022-08-28T06:25:51.352Z,2.30
2022-08-28T06:28:22.968Z,2.23
2022-08-28T06:31:17.874Z,2.70
2022-08-28T06:33:37.780Z,2.63
2022-08-28T06:36:05.068Z,2.47
2022-08-28T06:38:32.169Z,2.57
2022-08-28T06:40:59.531Z,2.43
2022-08-28T06:43:27.793Z,2.70
2022-08-28T06:45:57.122Z,2.43
2022-08-28T06:48:25.779Z,2.90
2022-08-28T06:50:53.193Z,2.53
2022-08-28T06:53:21.552Z,2.37
2022-08-28T06:55:58.791Z,2.70
2022-08-28T06:58:27.009Z,3.37
2022-08-28T07:01:07.460Z,2.97
2022-08-28T07:03:35.027Z,2.40
2022-08-28T07:06:02.326Z,2.40
2022-08-28T07:08:29.416Z,3.40
2022-08-28T07:10:56.543Z,2.50
2022-08-28T07:13:23.350Z,2.77
2022-08-28T07:15:50.239Z,2.63
2022-08-28T07:18:17.608Z,2.67
2022-08-28T07:20:45.428Z,2.90
2022-08-28T07:23:12.168Z,2.73
2022-08-28T07:25:41.962Z,2.77
2022-08-28T07:28:08.968Z,2.83
2022-08-28T07:30:35.731Z,3.17
2022-08-28T07:33:02.665Z,2.60
2022-08-28T07:35:29.450Z,2.77
2022-08-28T07:37:56.179Z,2.57
2022-08-28T07:40:22.971Z,2.40
2022-08-28T07:43:08.202Z,2.30
2022-08-28T07:45:35.934Z,2.37
2022-08-28T07:48:11.373Z,2.13
2022-08-28T07:50:38.520Z,2.07
2022-08-28T07:53:08.417Z,2.70
2022-08-28T07:55:35.226Z,2.30
2022-08-28T07:58:02.292Z,1.83
2022-08-28T08:00:29.015Z,2.20
2022-08-28T08:02:55.746Z,2.37
2022-08-28T08:05:22.944Z,2.13
2022-08-28T08:07:49.721Z,1.90
2022-08-28T08:10:20.631Z,2.53
2022-08-28T08:12:47.630Z,2.77
2022-08-28T08:15:14.404Z,2.10
2022-08-28T08:17:41.173Z,2.17
2022-08-28T08:20:08.668Z,1.97
2022-08-28T08:22:35.597Z,1.70
2022-08-28T08:25:05.409Z,1.80
2022-08-28T08:27:33.333Z,1.47
2022-08-28T08:30:00.113Z,1.60
2022-08-28T08:32:26.997Z,1.23
2022-08-28T08:34:55.992Z,1.47
2022-08-28T08:37:22.893Z,1.50
2022-08-28T08:39:50.922Z,1.50
2022-08-28T08:42:22.414Z,0.77
2022-08-28T08:44:49.335Z,1.00
2022-08-28T08:47:28.299Z,1.07
2022-08-28T08:50:04.058Z,0.90
2022-08-28T08:52:35.453Z,1.20
2022-08-28T08:55:09.969Z,1.00
2022-08-28T08:57:37.391Z,0.67
2022-08-28T09:00:15.018Z,1.40
2022-08-28T09:02:50.928Z,1.00
2022-08-28T09:05:20.582Z,1.10
2022-08-28T09:07:58.284Z,0.90
2022-08-28T09:10:29.224Z,1.00
2022-08-28T09:13:21.266Z,0.60
2022-08-28T09:15:50.835Z,0.83
2022-08-28T09:18:28.333Z,0.70
2022-08-28T09:20:56.964Z,0.90
2022-08-28T09:23:24.162Z,1.03
2022-08-28T09:26:01.802Z,1.37
2022-08-28T09:28:29.116Z,1.00
2022-08-28T09:31:04.618Z,1.30
2022-08-28T09:34:01.421Z,1.27
2022-08-28T09:36:38.196Z,1.00
2022-08-28T09:39:10.783Z,0.53
2022-08-28T09:42:19.663Z,0.67
2022-08-28T09:44:59.784Z,0.87
2022-08-28T09:47:36.471Z,0.50
2022-08-28T09:50:23.187Z,0.70
2022-08-28T09:52:50.675Z,0.70
2022-08-28T09:55:24.977Z,0.80
2022-08-28T09:57:51.916Z,0.80
2022-08-28T10:00:18.717Z,0.70
2022-08-28T10:03:15.387Z,0.60
2022-08-28T10:05:53.745Z,0.70
2022-08-28T10:08:52.120Z,0.87
2022-08-28T10:11:29.731Z,0.60
2022-08-28T10:14:31.700Z,0.80
2022-08-28T10:17:05.307Z,0.80
2022-08-28T10:19:59.566Z,0.70
2022-08-28T10:22:38.515Z,0.87
2022-08-28T10:25:30.087Z,1.10
2022-08-28T10:28:15.594Z,0.80
2022-08-28T10:31:14.177Z,0.80
2022-08-28T10:33:56.147Z,0.83
2022-08-28T10:36:33.520Z,0.70
2022-08-28T10:39:25.893Z,0.80
2022-08-28T10:42:00.031Z,0.80
2022-08-28T10:44:52.497Z,0.50
2022-08-28T10:47:20.972Z,0.50
2022-08-28T10:49:50.318Z,0.60
2022-08-28T10:52:24.139Z,0.70
2022-08-28T10:54:55.192Z,0.60
2022-08-28T10:57:29.365Z,0.40
2022-08-28T10:59:56.353Z,0.40
2022-08-28T11:02:24.016Z,0.50
2022-08-28T11:04:53.282Z,0.40
2022-08-28T11:07:45.347Z,0.37
2022-08-28T11:10:33.831Z,0.60
2022-08-28T11:13:00.716Z,0.70
2022-08-28T11:15:34.243Z,0.70
2022-08-28T11:18:18.828Z,0.50
2022-08-28T11:20:57.456Z,0.50
2022-08-28T11:23:30.039Z,0.37
2022-08-28T11:25:59.194Z,0.80
2022-08-28T11:28:25.875Z,0.60
2022-08-28T11:30:58.894Z,0.50
2022-08-28T11:33:44.597Z,0.80
2022-08-28T11:36:20.402Z,0.60
2022-08-28T11:38:55.704Z,0.43
2022-08-28T11:41:32.277Z,0.40
2022-08-28T11:44:11.288Z,0.40
2022-08-28T11:46:38.773Z,0.50
2022-08-28T11:49:26.437Z,0.30
2022-08-28T11:52:25.190Z,0.57
2022-08-28T11:54:55.483Z,0.40
2022-08-28T11:57:42.491Z,0.40
2022-08-28T12:00:38.247Z,0.40
2022-08-28T12:03:10.198Z,0.40
2022-08-28T12:05:40.371Z,0.80
2022-08-28T12:08:07.126Z,0.47
2022-08-28T12:10:34.169Z,0.60
2022-08-28T12:13:01.902Z,0.60
2022-08-28T12:15:28.575Z,0.40
2022-08-28T12:17:59.244Z,0.40
2022-08-28T12:20:35.909Z,0.40
2022-08-28T12:23:09.561Z,0.40
2022-08-28T12:25:41.604Z,0.60
2022-08-28T12:28:23.076Z,0.57
2022-08-28T12:31:07.044Z,0.50
2022-08-28T12:33:38.826Z,0.50
2022-08-28T12:36:06.471Z,0.77
2022-08-28T12:38:33.645Z,0.30
2022-08-28T12:41:00.559Z,0.30
2022-08-28T12:43:54.799Z,0.40
2022-08-28T12:46:30.171Z,0.40
2022-08-28T12:48:59.633Z,0.37
2022-08-28T12:51:28.886Z,0.30
2022-08-28T12:53:57.921Z,0.40
2022-08-28T12:56:25.528Z,0.50
2022-08-28T12:58:52.353Z,0.50
2022-08-28T13:01:32.584Z,0.53
2022-08-28T13:04:05.510Z,0.80
2022-08-28T13:06:41.240Z,0.90
2022-08-28T13:09:15.699Z,0.60
2022-08-28T13:11:49.383Z,0.40
2022-08-28T13:14:39.604Z,0.60
2022-08-28T13:17:06.527Z,0.50
2022-08-28T13:19:33.847Z,0.60
2022-08-28T13:22:09.292Z,0.70
2022-08-28T13:24:37.315Z,0.30
2022-08-28T13:27:08.956Z,0.40
2022-08-28T13:29:35.798Z,0.53
2022-08-28T13:32:07.586Z,0.37
2022-08-28T13:34:35.917Z,0.40
2022-08-28T13:37:14.817Z,0.40
2022-08-28T13:39:46.918Z,0.33
2022-08-28T13:42:14.429Z,0.50
2022-08-28T13:44:50.490Z,0.60
2022-08-28T13:47:17.305Z,0.33
2022-08-28T13:49:44.134Z,0.40
2022-08-28T13:52:10.925Z,0.40
2022-08-28T13:54:38.254Z,0.40
2022-08-28T13:57:09.868Z,0.53
2022-08-28T13:59:36.584Z,0.40
2022-08-28T14:02:24.580Z,0.30
2022-08-28T14:04:51.391Z,0.40
2022-08-28T14:07:18.299Z,0.40
2022-08-28T14:09:45.109Z,0.30
2022-08-28T14:12:12.098Z,0.27
2022-08-28T14:14:38.903Z,0.30
2022-08-28T14:17:06.367Z,0.40
2022-08-28T14:19:33.238Z,0.40
2022-08-28T14:21:59.974Z,0.50
2022-08-28T14:24:26.780Z,0.40
2022-08-28T14:26:54.099Z,0.43
2022-08-28T14:29:20.837Z,0.40
2022-08-28T14:31:47.717Z,0.30
2022-08-28T14:34:16.605Z,0.40
2022-08-28T14:36:43.490Z,0.40
2022-08-28T14:39:11.088Z,0.20
2022-08-28T14:41:37.882Z,0.40
2022-08-28T14:44:04.711Z,0.20
2022-08-28T14:46:33.331Z,0.30
2022-08-28T14:49:02.443Z,0.40
2022-08-28T14:51:30.521Z,0.43
2022-08-28T14:53:58.620Z,0.50
2022-08-28T14:56:25.685Z,0.30
2022-08-28T14:58:52.494Z,0.30
2022-08-28T15:01:30.789Z,0.43
2022-08-28T15:04:08.312Z,0.50
2022-08-28T15:06:36.723Z,0.40
2022-08-28T15:09:03.625Z,0.40
2022-08-28T15:11:30.728Z,0.37
2022-08-28T15:13:58.496Z,0.70
2022-08-28T15:16:30.326Z,0.77
2022-08-28T15:18:58.084Z,0.50
2022-08-28T15:21:32.146Z,0.50
2022-08-28T15:23:59.457Z,0.30
2022-08-28T15:26:26.604Z,0.40
2022-08-28T15:28:55.829Z,0.20
2022-08-28T15:31:25.634Z,0.27
2022-08-28T15:33:52.414Z,0.20
2022-08-28T15:36:19.520Z,0.40
2022-08-28T15:39:05.166Z,0.30
2022-08-28T15:41:31.992Z,0.57
2022-08-28T15:44:00.799Z,0.43
2022-08-28T15:46:33.509Z,0.43
2022-08-28T15:49:01.657Z,0.40
2022-08-28T15:51:28.587Z,0.40
2022-08-28T15:53:55.473Z,0.33
2022-08-28T15:56:22.272Z,0.30
2022-08-28T15:58:49.478Z,0.20
2022-08-28T16:01:16.252Z,0.30
2022-08-28T16:03:43.129Z,0.40
2022-08-28T16:06:16.021Z,0.33
2022-08-28T16:08:42.892Z,0.30
2022-08-28T16:11:11.853Z,0.40
2022-08-28T16:13:38.602Z,0.30
2022-08-28T16:16:05.430Z,0.40
2022-08-28T16:18:32.186Z,0.43
2022-08-28T16:21:02.801Z,0.30
2022-08-28T16:23:31.573Z,0.50
2022-08-28T16:25:58.721Z,0.53
2022-08-28T16:28:26.061Z,0.30
2022-08-28T16:30:53.987Z,0.30
2022-08-28T16:33:22.201Z,0.60
2022-08-28T16:35:54.903Z,0.30
2022-08-28T16:38:23.139Z,0.30
2022-08-28T16:40:49.956Z,0.40
2022-08-28T16:43:16.710Z,0.50
2022-08-28T16:45:44.468Z,0.50
2022-08-28T16:48:13.029Z,0.30
2022-08-28T16:50:41.053Z,0.40
2022-08-28T16:53:07.909Z,0.30
2022-08-28T16:55:35.089Z,0.60
2022-08-28T16:58:01.857Z,0.40
2022-08-28T17:00:28.670Z,0.40
2022-08-28T17:02:55.974Z,0.80
2022-08-28T17:05:24.762Z,0.40
2022-08-28T17:07:52.009Z,0.50
2022-08-28T17:10:20.802Z,0.50
2022-08-28T17:12:47.661Z,0.40
2022-08-28T17:15:14.605Z,0.50
2022-08-28T17:17:41.449Z,0.40
2022-08-28T17:20:28.974Z,0.37
2022-08-28T17:22:55.725Z,0.40
2022-08-28T17:25:22.598Z,0.40
2022-08-28T17:27:49.922Z,0.50
2022-08-28T17:30:18.230Z,0.50
2022-08-28T17:32:45.697Z,0.50
2022-08-28T17:35:12.953Z,0.53
2022-08-28T17:37:40.745Z,0.53
2022-08-28T17:40:09.428Z,0.50
2022-08-28T17:42:36.565Z,0.43
2022-08-28T17:45:06.968Z,0.40
2022-08-28T17:47:33.859Z,0.50
2022-08-28T17:50:01.493Z,0.40
2022-08-28T17:52:28.737Z,0.40
2022-08-28T17:54:55.603Z,0.40
2022-08-28T17:57:24.166Z,0.43
2022-08-28T17:59:50.928Z,0.47
2022-08-28T18:02:18.059Z,0.63
2022-08-28T18:04:44.823Z,0.30
2022-08-28T18:07:11.587Z,0.33
2022-08-28T18:09:38.380Z,0.50
2022-08-28T18:12:06.426Z,0.50
2022-08-28T18:14:39.428Z,0.50
2022-08-28T18:17:06.238Z,0.40
2022-08-28T18:19:36.950Z,0.63
2022-08-28T18:22:03.861Z,0.53
2022-08-28T18:24:32.067Z,0.47
2022-08-28T18:26:59.205Z,0.60
2022-08-28T18:29:27.128Z,0.70
2022-08-28T18:31:54.354Z,0.40
2022-08-28T18:34:21.264Z,0.70
2022-08-28T18:36:49.092Z,0.40
2022-08-28T18:39:16.624Z,0.50
2022-08-28T18:41:56.276Z,0.40
2022-08-28T18:44:24.410Z,0.40
2022-08-28T18:46:51.469Z,0.43
2022-08-28T18:49:18.440Z,0.40
2022-08-28T18:51:45.599Z,0.53
2022-08-28T18:54:13.446Z,0.50
2022-08-28T18:56:42.796Z,0.50
2022-08-28T18:59:09.917Z,0.50
2022-08-28T19:01:36.849Z,0.50
2022-08-28T19:04:03.987Z,0.40
2022-08-28T19:06:30.878Z,0.60
2022-08-28T19:08:57.667Z,0.40
2022-08-28T19:11:24.432Z,0.40
2022-08-28T19:13:51.203Z,0.40
2022-08-28T19:16:18.654Z,0.40
2022-08-28T19:18:45.878Z,0.50
2022-08-28T19:21:16.624Z,0.50
2022-08-28T19:23:45.404Z,0.40
2022-08-28T19:26:23.843Z,0.43
2022-08-28T19:28:50.669Z,0.57
2022-08-28T19:31:17.778Z,0.57
2022-08-28T19:33:46.482Z,0.37
2022-08-28T19:36:13.760Z,0.50
2022-08-28T19:38:40.744Z,0.60
2022-08-28T19:41:08.582Z,0.50
2022-08-28T19:43:43.292Z,0.43
2022-08-28T19:46:19.245Z,0.50
2022-08-28T19:48:47.047Z,0.60
2022-08-28T19:51:17.522Z,0.60
2022-08-28T19:53:56.907Z,0.70
2022-08-28T19:56:27.480Z,0.60
2022-08-28T19:58:55.124Z,0.60
2022-08-28T20:01:21.980Z,0.57
2022-08-28T20:03:48.985Z,0.40
2022-08-28T20:06:15.869Z,0.40
2022-08-28T20:08:42.609Z,0.60
2022-08-28T20:11:09.739Z,0.50
2022-08-28T20:13:36.548Z,0.50
2022-08-28T20:16:04.492Z,0.50
2022-08-28T20:18:31.308Z,0.60
2022-08-28T20:20:58.044Z,0.70
2022-08-28T20:23:24.740Z,0.47
2022-08-28T20:25:51.692Z,0.63
2022-08-28T20:28:19.015Z,0.43
2022-08-28T20:30:46.398Z,0.33
2022-08-28T20:33:13.169Z,0.70
2022-08-28T20:35:40.084Z,0.50
2022-08-28T20:38:06.930Z,0.40
2022-08-28T20:40:33.858Z,0.40
2022-08-28T20:43:00.833Z,0.50
2022-08-28T20:45:28.173Z,0.47
2022-08-28T20:47:54.932Z,0.53
2022-08-28T20:50:21.814Z,0.70
2022-08-28T20:52:48.580Z,0.50
2022-08-28T20:55:15.330Z,0.67
2022-08-28T20:57:42.213Z,0.30
2022-08-28T21:00:09.836Z,0.50
2022-08-28T21:02:36.649Z,0.73
2022-08-28T21:05:03.839Z,0.63
2022-08-28T21:07:31.130Z,0.77
2022-08-28T21:10:07.167Z,0.60
2022-08-28T21:12:37.811Z,0.60
2022-08-28T21:15:10.909Z,0.60
2022-08-28T21:17:37.614Z,0.70
2022-08-28T21:20:09.206Z,0.60
2022-08-28T21:22:37.028Z,0.30
2022-08-28T21:25:05.293Z,0.50
2022-08-28T21:27:32.053Z,0.37
2022-08-28T21:29:59.171Z,0.50
2022-08-28T21:32:26.721Z,0.50
2022-08-28T21:34:54.527Z,0.63
2022-08-28T21:37:21.421Z,0.40
2022-08-28T21:39:48.209Z,0.60
2022-08-28T21:42:15.087Z,0.50
2022-08-28T21:44:43.341Z,0.63
2022-08-28T21:47:19.738Z,0.50
2022-08-28T21:49:51.388Z,0.70
2022-08-28T21:52:18.937Z,0.80
2022-08-28T21:54:45.796Z,0.63
2022-08-28T21:57:12.530Z,0.60
2022-08-28T21:59:39.344Z,0.43
2022-08-28T22:02:06.425Z,0.40
2022-08-28T22:04:33.449Z,0.60
2022-08-28T22:07:00.181Z,0.60
2022-08-28T22:09:26.915Z,0.50
2022-08-28T22:11:53.971Z,0.50
2022-08-28T22:14:21.026Z,0.60
2022-08-28T22:16:47.870Z,0.60
2022-08-28T22:19:14.659Z,0.40
2022-08-28T22:21:59.901Z,0.40
2022-08-28T22:24:26.680Z,0.53
2022-08-28T22:26:57.522Z,0.53
2022-08-28T22:29:24.833Z,0.50
2022-08-28T22:31:51.625Z,0.50
2022-08-28T22:34:18.404Z,0.60
2022-08-28T22:36:45.153Z,0.50
2022-08-28T22:39:11.904Z,0.33
2022-08-28T22:41:38.669Z,0.63
2022-08-28T22:44:05.431Z,0.80
2022-08-28T22:46:32.171Z,0.40
2022-08-28T22:48:59.291Z,0.80
2022-08-28T22:51:26.034Z,0.60
2022-08-28T22:53:52.931Z,0.60
2022-08-28T22:56:19.758Z,0.70
2022-08-28T22:58:46.533Z,0.60
2022-08-28T23:01:18.892Z,0.50
2022-08-28T23:03:45.661Z,0.40
2022-08-28T23:06:12.530Z,0.43
2022-08-28T23:08:39.335Z,0.70
2022-08-28T23:11:06.341Z,0.57
2022-08-28T23:13:33.259Z,0.60
2022-08-28T23:16:00.483Z,0.57
2022-08-28T23:18:27.651Z,0.50
2022-08-28T23:20:55.243Z,0.40
2022-08-28T23:23:22.989Z,0.60
2022-08-28T23:25:50.465Z,0.30
2022-08-28T23:28:17.640Z,0.40
2022-08-28T23:30:48.535Z,0.37
2022-08-28T23:33:23.251Z,0.63
2022-08-28T23:35:51.365Z,0.70
2022-08-28T23:38:18.098Z,0.67
2022-08-28T23:40:44.834Z,0.63
2022-08-28T23:43:11.919Z,0.87
2022-08-28T23:45:39.991Z,0.50
2022-08-28T23:48:06.907Z,0.60
2022-08-28T23:50:33.930Z,0.60
2022-08-28T23:53:02.020Z,0.50
2022-08-28T23:55:28.956Z,0.60
2022-08-28T23:57:55.894Z,0.60
